createdAt,value
2022-11-18T00:00:32.262Z,100.00
2022-11-18T00:03:05.164Z,99.99
2022-11-18T00:05:37.546Z,100.00
2022-11-18T00:08:10.667Z,100.00
2022-11-18T00:10:42.990Z,100.00
2022-11-18T00:13:33.506Z,100.00
2022-11-18T00:16:08.024Z,100.00
2022-11-18T00:18:40.428Z,100.00
2022-11-18T00:21:12.782Z,99.83
2022-11-18T00:23:48.683Z,99.37
2022-11-18T00:26:21.030Z,99.43
2022-11-18T00:28:53.405Z,98.88
2022-11-18T00:31:25.781Z,98.49
2022-11-18T00:33:58.215Z,98.90
2022-11-18T00:36:30.881Z,98.48
2022-11-18T00:39:03.986Z,98.04
2022-11-18T00:41:54.361Z,97.78
2022-11-18T00:44:26.785Z,98.60
2022-11-18T00:46:59.176Z,98.18
2022-11-18T00:49:31.537Z,98.34
2022-11-18T00:52:04.857Z,98.56
2022-11-18T00:54:37.887Z,98.27
2022-11-18T00:57:10.269Z,98.26
2022-11-18T00:59:42.669Z,97.91
2022-11-18T01:02:15.131Z,97.93
2022-11-18T01:04:47.526Z,97.74
2022-11-18T01:07:19.951Z,97.80
2022-11-18T01:09:53.007Z,97.62
2022-11-18T01:12:43.159Z,97.43
2022-11-18T01:15:15.533Z,97.68
2022-11-18T01:17:47.951Z,97.62
2022-11-18T01:20:20.325Z,97.24
2022-11-18T01:22:52.710Z,97.10
2022-11-18T01:25:25.928Z,97.60
2022-11-18T01:27:58.255Z,97.31
2022-11-18T01:30:33.750Z,97.34
2022-11-18T01:33:06.482Z,97.45
2022-11-18T01:35:40.875Z,97.35
2022-11-18T01:38:14.362Z,97.38
2022-11-18T01:40:47.369Z,97.00
2022-11-18T01:43:21.760Z,97.12
2022-11-18T01:45:54.202Z,97.31
2022-11-18T01:48:31.509Z,96.41
2022-11-18T01:51:07.709Z,96.58
2022-11-18T01:53:42.712Z,96.43
2022-11-18T01:56:18.762Z,96.59
2022-11-18T01:58:55.499Z,96.94
2022-11-18T02:01:27.970Z,97.00
2022-11-18T02:04:00.613Z,97.53
2022-11-18T02:06:33.432Z,97.68
2022-11-18T02:09:05.978Z,97.46
2022-11-18T02:11:51.046Z,97.24
2022-11-18T02:14:26.467Z,97.39
2022-11-18T02:17:11.558Z,97.39
2022-11-18T02:20:18.576Z,97.46
2022-11-18T02:23:16.881Z,97.56
2022-11-18T02:26:07.384Z,97.95
2022-11-18T02:28:59.153Z,98.70
2022-11-18T02:31:35.205Z,98.84
2022-11-18T02:34:17.632Z,98.49
2022-11-18T02:36:55.026Z,99.15
2022-11-18T02:39:33.525Z,99.33
2022-11-18T02:42:10.457Z,100.00
2022-11-18T02:44:50.802Z,99.60
2022-11-18T02:47:25.493Z,100.00
2022-11-18T02:50:03.168Z,100.00
2022-11-18T02:52:37.822Z,100.00
2022-11-18T02:55:13.429Z,100.00
2022-11-18T02:57:47.577Z,100.00
2022-11-18T03:00:20.657Z,100.00
2022-11-18T03:02:53.053Z,100.00
2022-11-18T03:05:31.605Z,100.00
2022-11-18T03:08:09.608Z,100.00
2022-11-18T03:10:52.068Z,100.00
2022-11-18T03:13:32.286Z,100.00
2022-11-18T03:16:12.460Z,100.00
2022-11-18T03:18:50.406Z,100.00
2022-11-18T03:21:34.717Z,100.00
2022-11-18T03:24:14.734Z,100.00
2022-11-18T03:26:53.955Z,100.00
2022-11-18T03:29:32.579Z,100.00
2022-11-18T03:32:09.738Z,100.00
2022-11-18T03:34:44.920Z,100.00
2022-11-18T03:37:19.867Z,100.00
2022-11-18T03:39:56.596Z,100.00
2022-11-18T03:42:34.827Z,100.00
2022-11-18T03:45:12.288Z,100.00
2022-11-18T03:47:50.041Z,100.00
2022-11-18T03:50:27.959Z,100.00
2022-11-18T03:53:02.614Z,100.00
2022-11-18T03:55:39.556Z,100.00
2022-11-18T03:58:18.209Z,100.00
2022-11-18T04:00:54.165Z,100.00
2022-11-18T04:03:27.388Z,100.00
2022-11-18T04:06:09.205Z,100.00
2022-11-18T04:08:45.238Z,100.00
2022-11-18T04:11:38.717Z,100.00
2022-11-18T04:14:13.664Z,100.00
2022-11-18T04:16:50.717Z,100.00
2022-11-18T04:19:23.987Z,100.00
2022-11-18T04:21:56.575Z,100.00
2022-11-18T04:24:28.960Z,100.00
2022-11-18T04:27:02.102Z,100.00
2022-11-18T04:29:34.683Z,100.00
2022-11-18T04:32:07.256Z,100.00
2022-11-18T04:34:40.243Z,100.00
2022-11-18T04:37:12.612Z,100.00
2022-11-18T04:39:44.950Z,100.00
2022-11-18T04:42:17.356Z,100.00
2022-11-18T04:44:49.713Z,100.00
2022-11-18T04:47:22.203Z,100.00
2022-11-18T04:49:55.243Z,100.00
2022-11-18T04:52:27.671Z,100.00
2022-11-18T04:55:00.046Z,100.00
2022-11-18T04:57:32.449Z,100.00
2022-11-18T05:00:06.269Z,100.00
2022-11-18T05:02:38.689Z,100.00
2022-11-18T05:05:11.750Z,100.00
2022-11-18T05:07:44.178Z,100.00
2022-11-18T05:10:17.026Z,100.00
2022-11-18T05:12:49.112Z,100.00
2022-11-18T05:15:23.264Z,100.00
2022-11-18T05:17:55.647Z,100.00
2022-11-18T05:20:28.677Z,100.00
2022-11-18T05:23:01.109Z,100.00
2022-11-18T05:25:35.205Z,100.00
2022-11-18T05:28:07.640Z,100.00
2022-11-18T05:30:40.310Z,100.00
2022-11-18T05:33:12.670Z,100.00
2022-11-18T05:35:45.713Z,100.00
2022-11-18T05:38:18.149Z,100.00
2022-11-18T05:40:50.503Z,100.00
2022-11-18T05:43:22.611Z,100.00
2022-11-18T05:45:54.989Z,100.00
2022-11-18T05:48:27.654Z,100.00
2022-11-18T05:51:00.715Z,100.00
2022-11-18T05:53:33.148Z,100.00
2022-11-18T05:56:15.615Z,100.00
2022-11-18T05:58:48.087Z,100.00
2022-11-18T06:01:24.485Z,100.00
2022-11-18T06:03:58.104Z,100.00
2022-11-18T06:06:31.733Z,100.00
2022-11-18T06:09:05.776Z,100.00
2022-11-18T06:11:41.494Z,100.00
2022-11-18T06:14:16.773Z,100.00
2022-11-18T06:16:54.480Z,100.00
2022-11-18T06:19:27.068Z,100.00
2022-11-18T06:22:01.462Z,100.00
2022-11-18T06:24:34.346Z,100.00
2022-11-18T06:27:06.786Z,100.00
2022-11-18T06:29:39.377Z,100.00
2022-11-18T06:32:11.792Z,100.00
2022-11-18T06:34:44.274Z,100.00
2022-11-18T06:37:19.924Z,100.00
2022-11-18T06:39:52.384Z,100.00
2022-11-18T06:42:45.771Z,100.00
2022-11-18T06:45:18.248Z,100.00
2022-11-18T06:47:50.667Z,100.00
2022-11-18T06:50:23.092Z,100.00
2022-11-18T06:52:56.419Z,100.00
2022-11-18T06:55:29.164Z,100.00
2022-11-18T06:58:01.512Z,100.00
2022-11-18T07:00:33.968Z,100.00
2022-11-18T07:03:06.420Z,100.00
2022-11-18T07:05:38.873Z,100.00
2022-11-18T07:08:11.949Z,100.00
2022-11-18T07:10:52.103Z,100.00
2022-11-18T07:13:24.524Z,100.00
2022-11-18T07:16:03.085Z,100.00
2022-11-18T07:18:37.806Z,100.00
2022-11-18T07:21:14.752Z,99.60
2022-11-18T07:23:48.198Z,98.70
2022-11-18T07:26:21.221Z,97.93
2022-11-18T07:28:54.077Z,96.83
2022-11-18T07:31:26.595Z,96.86
2022-11-18T07:33:58.979Z,96.67
2022-11-18T07:36:35.638Z,94.96
2022-11-18T07:39:09.520Z,95.00
2022-11-18T07:41:41.940Z,93.34
2022-11-18T07:44:14.436Z,92.17
2022-11-18T07:46:46.806Z,90.29
2022-11-18T07:49:19.591Z,85.29
2022-11-18T07:51:53.041Z,81.41
2022-11-18T07:54:26.063Z,78.93
2022-11-18T07:56:58.454Z,78.31
2022-11-18T07:59:30.802Z,77.23
2022-11-18T08:02:03.309Z,77.72
2022-11-18T08:04:37.234Z,77.31
2022-11-18T08:07:09.926Z,77.32
2022-11-18T08:09:43.029Z,75.49
2022-11-18T08:12:15.408Z,75.46
2022-11-18T08:14:49.310Z,74.77
2022-11-18T08:17:22.171Z,74.72
2022-11-18T08:19:54.624Z,75.24
2022-11-18T08:22:27.001Z,73.91
2022-11-18T08:25:00.120Z,73.96
2022-11-18T08:27:32.830Z,75.25
2022-11-18T08:30:06.236Z,75.27
2022-11-18T08:32:38.729Z,72.25
2022-11-18T08:35:11.572Z,71.90
2022-11-18T08:37:44.068Z,73.05
2022-11-18T08:40:17.274Z,69.86
2022-11-18T08:42:49.725Z,68.25
2022-11-18T08:45:22.231Z,67.97
2022-11-18T08:47:54.650Z,67.73
2022-11-18T08:50:27.016Z,65.63
2022-11-18T08:52:59.419Z,65.71
2022-11-18T08:55:32.472Z,64.22
2022-11-18T08:58:04.858Z,64.50
2022-11-18T09:00:38.182Z,64.25
2022-11-18T09:03:10.593Z,63.07
2022-11-18T09:05:43.012Z,61.43
2022-11-18T09:08:15.543Z,62.27
2022-11-18T09:10:48.614Z,61.62
2022-11-18T09:16:13.918Z,61.15
2022-11-18T09:18:46.298Z,61.23
2022-11-18T09:21:18.948Z,61.50
2022-11-18T09:23:51.489Z,60.83
2022-11-18T09:26:24.520Z,61.00
2022-11-18T09:28:57.223Z,60.76
2022-11-18T09:31:30.042Z,60.65
2022-11-18T09:34:02.540Z,60.28
2022-11-18T09:36:34.952Z,60.89
2022-11-18T09:39:07.338Z,60.91
2022-11-18T09:41:48.068Z,59.21
2022-11-18T09:44:44.509Z,60.16
2022-11-18T09:47:25.863Z,59.11
2022-11-18T09:50:03.791Z,58.16
2022-11-18T09:52:50.607Z,60.53
2022-11-18T09:55:23.399Z,58.90
2022-11-18T09:57:58.627Z,58.74
2022-11-18T10:00:31.207Z,57.62
2022-11-18T10:03:05.925Z,58.60
2022-11-18T10:05:45.093Z,57.88
2022-11-18T10:08:25.352Z,57.05
2022-11-18T10:11:01.500Z,56.76
2022-11-18T10:13:48.537Z,57.28
2022-11-18T10:16:30.049Z,57.64
2022-11-18T10:19:11.625Z,56.74
2022-11-18T10:21:56.018Z,56.73
2022-11-18T10:24:33.336Z,56.86
2022-11-18T10:27:10.524Z,57.91
2022-11-18T10:29:44.966Z,58.65
2022-11-18T10:32:17.930Z,58.46
2022-11-18T10:34:52.967Z,59.12
2022-11-18T10:37:52.489Z,58.39
2022-11-18T10:40:25.182Z,57.90
2022-11-18T10:42:57.619Z,58.49
2022-11-18T10:45:32.407Z,58.74
2022-11-18T10:48:16.458Z,58.03
2022-11-18T10:50:55.246Z,59.70
2022-11-18T10:53:30.979Z,59.14
2022-11-18T10:56:04.728Z,58.84
2022-11-18T10:58:41.441Z,60.72
2022-11-18T11:01:21.210Z,60.03
2022-11-18T11:03:59.256Z,60.70
2022-11-18T11:06:34.397Z,61.30
2022-11-18T11:09:09.755Z,60.66
2022-11-18T11:11:54.709Z,60.65
2022-11-18T11:14:31.647Z,60.82
2022-11-18T11:17:09.306Z,61.39
2022-11-18T11:19:48.870Z,61.75
2022-11-18T11:22:21.343Z,62.24
2022-11-18T11:24:53.850Z,61.98
2022-11-18T11:30:38.741Z,63.27
2022-11-18T11:33:30.710Z,64.13
2022-11-18T11:36:41.401Z,64.29
2022-11-18T11:39:46.600Z,64.67
2022-11-18T11:42:35.025Z,64.96
2022-11-18T11:45:19.247Z,65.10
2022-11-18T11:48:12.534Z,65.91
2022-11-18T11:51:04.063Z,65.93
2022-11-18T11:53:59.500Z,66.51
2022-11-18T11:56:35.342Z,67.04
2022-11-18T11:59:27.642Z,66.94
2022-11-18T12:02:40.045Z,67.35
2022-11-18T12:05:21.879Z,67.53
2022-11-18T12:07:57.311Z,67.66
2022-11-18T12:10:40.109Z,67.52
2022-11-18T12:13:35.330Z,67.46
2022-11-18T12:16:27.865Z,67.59
2022-11-18T12:19:06.728Z,68.27
2022-11-18T12:21:55.475Z,68.08
2022-11-18T12:24:31.582Z,68.91
2022-11-18T12:27:10.718Z,67.92
2022-11-18T12:29:54.192Z,68.30
2022-11-18T12:32:29.788Z,68.62
2022-11-18T12:35:05.698Z,68.34
2022-11-18T12:37:44.673Z,67.50
2022-11-18T12:40:36.672Z,67.26
2022-11-18T12:43:58.385Z,67.25
2022-11-18T12:46:54.810Z,67.56
2022-11-18T12:50:03.531Z,67.17
2022-11-18T12:52:47.734Z,67.11
2022-11-18T12:55:30.511Z,66.39
2022-11-18T12:58:03.554Z,66.25
2022-11-18T13:00:51.492Z,66.72
2022-11-18T13:03:28.321Z,66.44
2022-11-18T13:06:05.707Z,66.30
2022-11-18T13:08:39.735Z,66.08
2022-11-18T13:11:34.761Z,66.63
2022-11-18T13:14:33.431Z,66.54
2022-11-18T13:17:47.905Z,66.79
2022-11-18T13:20:28.637Z,66.26
2022-11-18T13:23:20.844Z,66.58
2022-11-18T13:25:53.906Z,66.74
2022-11-18T13:28:32.785Z,66.22
2022-11-18T13:31:14.621Z,66.47
2022-11-18T13:33:47.254Z,66.68
2022-11-18T13:36:22.470Z,66.91
2022-11-18T13:38:56.117Z,67.44
2022-11-18T13:41:32.308Z,66.62
2022-11-18T13:44:15.528Z,67.31
2022-11-18T13:46:53.686Z,67.56
2022-11-18T13:49:50.081Z,68.06
2022-11-18T13:52:27.552Z,68.53
2022-11-18T13:55:03.086Z,69.38
2022-11-18T13:57:36.357Z,69.90
2022-11-18T14:00:21.197Z,69.69
2022-11-18T14:02:57.450Z,69.80
2022-11-18T14:05:29.833Z,70.46
2022-11-18T14:08:05.829Z,70.11
2022-11-18T14:10:43.602Z,70.42
2022-11-18T14:13:22.902Z,69.66
2022-11-18T14:15:57.272Z,68.77
2022-11-18T14:18:33.703Z,69.55
2022-11-18T14:21:06.264Z,69.26
2022-11-18T14:23:43.283Z,69.26
2022-11-18T14:26:27.239Z,69.07
2022-11-18T14:29:01.327Z,68.90
2022-11-18T14:31:33.751Z,68.36
2022-11-18T14:34:23.959Z,68.48
2022-11-18T14:36:56.497Z,68.09
2022-11-18T14:39:30.420Z,68.25
2022-11-18T14:42:04.956Z,67.84
2022-11-18T14:44:37.310Z,68.10
2022-11-18T14:47:19.020Z,68.31
2022-11-18T14:49:52.182Z,68.59
2022-11-18T14:52:24.554Z,72.61
2022-11-18T14:54:56.886Z,74.16
2022-11-18T14:57:29.286Z,77.97
2022-11-18T15:00:01.883Z,80.29
2022-11-18T15:02:34.325Z,82.38
2022-11-18T15:05:08.507Z,84.71
2022-11-18T15:07:40.918Z,83.93
2022-11-18T15:10:15.502Z,84.90
2022-11-18T15:12:47.938Z,86.31
2022-11-18T15:15:20.305Z,88.13
2022-11-18T15:17:54.057Z,89.59
2022-11-18T15:20:27.416Z,88.15
2022-11-18T15:22:59.796Z,88.17
2022-11-18T15:25:32.179Z,86.51
2022-11-18T15:28:04.647Z,84.88
2022-11-18T15:30:37.011Z,86.26
2022-11-18T15:33:09.376Z,85.72
2022-11-18T15:35:42.515Z,85.46
2022-11-18T15:38:14.919Z,84.11
2022-11-18T15:40:47.432Z,82.28
2022-11-18T15:43:19.839Z,81.67
2022-11-18T15:45:56.703Z,80.92
2022-11-18T15:48:29.134Z,79.65
2022-11-18T15:51:03.636Z,78.77
2022-11-18T15:53:37.898Z,77.96
2022-11-18T15:56:24.485Z,77.63
2022-11-18T15:58:58.820Z,76.99
2022-11-18T16:01:33.063Z,76.47
2022-11-18T16:04:07.511Z,75.80
2022-11-18T16:06:42.728Z,75.88
2022-11-18T16:09:16.653Z,75.24
2022-11-18T16:12:07.127Z,74.68
2022-11-18T16:14:39.481Z,74.73
2022-11-18T16:17:11.841Z,75.60
2022-11-18T16:19:44.184Z,79.24
2022-11-18T16:22:17.173Z,81.06
2022-11-18T16:24:49.560Z,82.85
2022-11-18T16:27:21.906Z,85.20
2022-11-18T16:29:54.338Z,86.11
2022-11-18T16:32:26.397Z,88.98
2022-11-18T16:35:01.371Z,89.84
2022-11-18T16:37:34.913Z,91.24
2022-11-18T16:40:08.941Z,92.61
2022-11-18T16:42:41.468Z,93.48
2022-11-18T16:45:13.976Z,94.09
2022-11-18T16:47:46.361Z,92.95
2022-11-18T16:50:18.966Z,91.80
2022-11-18T16:52:51.956Z,92.73
2022-11-18T16:55:24.302Z,91.66
2022-11-18T16:57:56.702Z,90.75
2022-11-18T17:00:58.307Z,91.72
2022-11-18T17:03:22.646Z,90.63
2022-11-18T17:05:59.627Z,89.74
2022-11-18T17:08:34.257Z,88.54
2022-11-18T17:11:08.517Z,88.20
2022-11-18T17:13:41.434Z,87.62
2022-11-18T17:16:15.995Z,87.32
2022-11-18T17:18:53.765Z,86.40
2022-11-18T17:21:27.863Z,85.93
2022-11-18T17:24:00.882Z,86.27
2022-11-18T17:26:33.797Z,85.49
2022-11-18T17:29:06.113Z,84.92
2022-11-18T17:31:39.183Z,84.86
2022-11-18T17:34:13.146Z,83.70
2022-11-18T17:36:45.563Z,84.13
2022-11-18T17:39:20.015Z,84.09
2022-11-18T17:42:10.438Z,83.92
2022-11-18T17:44:43.010Z,83.69
2022-11-18T17:47:15.403Z,84.62
2022-11-18T17:49:47.754Z,84.20
2022-11-18T17:52:20.159Z,84.74
2022-11-18T17:54:53.157Z,84.63
2022-11-18T17:57:25.547Z,85.07
2022-11-18T17:59:57.953Z,84.07
2022-11-18T18:02:30.357Z,84.65
2022-11-18T18:05:02.795Z,84.97
2022-11-18T18:07:35.204Z,84.84
2022-11-18T18:10:09.187Z,85.68
2022-11-18T18:27:22.785Z,88.82
2022-11-18T18:29:55.356Z,87.90
2022-11-18T18:32:28.793Z,87.47
2022-11-18T18:35:01.198Z,86.77
2022-11-18T18:37:35.076Z,86.94
2022-11-18T18:40:08.502Z,87.07
2022-11-18T18:42:41.542Z,87.24
2022-11-18T18:45:32.359Z,87.13
2022-11-18T18:48:05.163Z,86.81
2022-11-18T18:50:37.584Z,86.62
2022-11-18T18:53:09.893Z,87.23
2022-11-18T18:55:45.032Z,87.05
2022-11-18T18:58:18.347Z,86.79
2022-11-18T19:00:54.233Z,87.21
2022-11-18T19:03:30.374Z,87.16
2022-11-18T19:06:48.804Z,87.46
2022-11-18T19:09:08.795Z,87.10
2022-11-18T19:11:59.806Z,87.12
2022-11-18T19:14:34.529Z,86.44
2022-11-18T19:17:11.321Z,86.04
2022-11-18T19:20:02.463Z,85.83
2022-11-18T19:22:35.036Z,85.91
2022-11-18T19:25:08.078Z,85.06
2022-11-18T19:27:40.582Z,84.48
2022-11-18T19:30:13.851Z,84.75
2022-11-18T19:32:46.287Z,84.65
2022-11-18T19:35:18.916Z,84.46
2022-11-18T19:37:51.278Z,84.12
2022-11-18T19:40:23.724Z,84.98
2022-11-18T19:42:56.123Z,84.27
2022-11-18T19:45:29.253Z,84.29
2022-11-18T19:48:02.180Z,84.67
2022-11-18T19:50:34.529Z,84.76
2022-11-18T19:53:26.918Z,85.17
2022-11-18T19:56:00.794Z,84.86
2022-11-18T19:58:34.997Z,84.29
2022-11-18T20:01:13.875Z,84.30
2022-11-18T20:03:47.636Z,84.31
2022-11-18T20:06:21.535Z,85.29
2022-11-18T20:08:55.107Z,85.88
2022-11-18T20:11:28.134Z,85.76
2022-11-18T20:14:00.874Z,86.47
2022-11-18T20:16:36.332Z,86.75
2022-11-18T20:19:12.688Z,86.41
2022-11-18T20:21:47.154Z,86.56
2022-11-18T20:24:19.516Z,86.82
2022-11-18T20:26:51.897Z,86.63
2022-11-18T20:29:24.317Z,86.45
2022-11-18T20:31:57.330Z,88.06
2022-11-18T20:34:29.685Z,88.62
2022-11-18T20:37:02.072Z,89.19
2022-11-18T20:39:34.457Z,91.95
2022-11-18T20:42:25.006Z,94.50
2022-11-18T20:44:57.357Z,96.85
2022-11-18T20:47:30.498Z,97.89
2022-11-18T20:50:03.036Z,100.00
2022-11-18T20:52:35.469Z,100.00
2022-11-18T20:55:09.720Z,100.00
2022-11-18T20:57:42.119Z,100.00
2022-11-18T21:00:15.309Z,100.00
2022-11-18T21:02:48.526Z,100.00
2022-11-18T21:05:20.881Z,100.00
2022-11-18T21:07:53.241Z,100.00
2022-11-18T21:10:25.621Z,100.00
2022-11-18T21:13:16.150Z,100.00
2022-11-18T21:15:48.521Z,100.00
2022-11-18T21:18:21.579Z,100.00
2022-11-18T21:21:11.266Z,100.00
2022-11-18T21:23:43.369Z,100.00
2022-11-18T21:26:15.648Z,100.00
2022-11-18T21:28:48.561Z,100.00
2022-11-18T21:31:23.343Z,100.00
2022-11-18T21:33:56.947Z,100.00
2022-11-18T21:36:29.745Z,100.00
2022-11-18T21:39:04.195Z,100.00
2022-11-18T21:41:36.971Z,100.00
2022-11-18T21:44:10.879Z,100.00
2022-11-18T21:46:43.277Z,100.00
2022-11-18T21:49:16.721Z,100.00
2022-11-18T21:51:49.619Z,100.00
2022-11-18T21:54:21.967Z,100.00
2022-11-18T21:56:54.374Z,100.00
2022-11-18T21:59:26.755Z,100.00
2022-11-18T22:01:59.131Z,99.39
2022-11-18T22:04:50.242Z,99.14
2022-11-18T22:07:23.686Z,98.42
2022-11-18T22:09:56.028Z,98.49
2022-11-18T22:12:28.376Z,97.70
2022-11-18T22:15:00.904Z,97.83
2022-11-18T22:17:33.270Z,97.35
2022-11-18T22:20:07.671Z,96.67
2022-11-18T22:22:40.078Z,96.93
2022-11-18T22:25:12.470Z,96.64
2022-11-18T22:27:44.884Z,96.62
2022-11-18T22:30:17.284Z,96.20
2022-11-18T22:32:49.677Z,96.46
2022-11-18T22:35:22.649Z,98.76
2022-11-18T22:37:54.968Z,100.00
2022-11-18T22:40:27.326Z,100.00
2022-11-18T22:42:59.356Z,100.00
2022-11-18T22:45:31.649Z,100.00
2022-11-18T22:48:04.161Z,100.00
2022-11-18T22:50:37.323Z,100.00
2022-11-18T22:53:09.694Z,100.00
2022-11-18T22:55:42.013Z,100.00
2022-11-18T22:58:14.365Z,100.00
2022-11-18T23:00:47.184Z,100.00
2022-11-18T23:03:19.543Z,100.00
2022-11-18T23:05:58.925Z,100.00
2022-11-18T23:08:34.203Z,100.00
2022-11-18T23:11:09.055Z,100.00
2022-11-18T23:13:56.214Z,100.00
2022-11-18T23:16:32.167Z,100.00
2022-11-18T23:19:06.673Z,100.00
2022-11-18T23:21:40.246Z,100.00
2022-11-18T23:24:13.731Z,100.00
2022-11-18T23:26:46.558Z,100.00
2022-11-18T23:29:19.791Z,100.00
2022-11-18T23:31:53.141Z,100.00
2022-11-18T23:34:25.474Z,100.00
2022-11-18T23:36:58.455Z,100.00
2022-11-18T23:39:30.821Z,100.00
2022-11-18T23:42:04.433Z,97.28
2022-11-18T23:44:45.528Z,97.71
2022-11-18T23:47:17.862Z,98.50
2022-11-18T23:49:50.153Z,98.73
2022-11-18T23:52:23.196Z,99.16
2022-11-18T23:54:56.911Z,100.00
2022-11-18T23:57:29.287Z,100.00
